My Meet Scores
Tessa Biggs, Phenom Gymnastics - MyMeetScores.com
Top100 | Top Teams | Upcoming Meets | Completed Meets | Latest | Add Scores | Help| Support | Bookmark and Share

Tessa Biggs, Phenom Gymnastics
Personal Bests
LevelVault BarsBeamFloorAA
39.6759.700 9.7509.82538.850
49.4259.575 9.8009.60038.175
59.5759.500 9.7009.35037.950
Scores on America's Top 100as of 04.09.2020
Year Level Vault Bars Beam Floor AA
2018 338.850
2020 59.70037.950

Click here to view our exclusive Top 100 Collection
Meet Scores
Date Meet Team Session Level Division Vault Bars Beam Floor AA
2020-02-21 Kinetic Classic Phenom Gymnastics 03 5 Younger 9.500 3T 9.450 1 9.700 2 9.300 16 37.950 2
2020-02-14 Big Classic Phenom Gymnastics 1A 5 Child A 9.325 19T 8.425 61 9.625 1 9.000 28T 36.375 22
2020-01-17 2020 Bravo Classic Phenom Gymnastics 4A 5 Child 9.575 4T 9.325 5 9.550 1 9.225 11 37.675 3
2019-12-20 Aspire Classic - 2019 Phenom Gymnastics 3A 5 Younger 9.450 4 9.500 2 9.575 2 9.350 1 37.875 1
2019-12-13 MEGA Magic Classic 2019 Phenom Gymnastics 1B 5 Jr A 9.225 4 8.450 10 9.175 3 9.150 4 36.000 7
2019-03-22 Illinois Gymnastics State Championships Phenom Gymnastics 8 4 Ch A 9.200 3T 9.575 6T 9.800 1 9.600 3 38.175 1
2019-03-01 NGCD Academy's 2019 Flip'r Invitational Phenom Gymnastics 10 4 Child A 9.425 1 9.250 5T 8.900 9T 9.350 5T 36.925 5
2019-02-15 Big ClassicBIG CLASSIC Phenom Gymnastics 2A 4 Child A 8.850 1 9.350 3 9.150 5T 8.900 10 36.250 3
2019-01-25 King Arthur Invitational Phenom Gymnastics 1 4 Jr A 8.575 1 9.200 2 8.900 5 9.150 3 35.825 1
2019-01-18 2019 Bravo Classic Phenom Gymnastics 4B 4 Child 8.900 13T 8.500 14 9.000 8T 9.325 3T 35.725 9
2018-12-14 2018 Aspire Classic Phenom Gymnastics 5A 4 Younger 8.800 11T 8.925 9 9.600 1 9.050 14T 36.375 7
2018-12-07 2018 MEGA Magic Classic Phenom Gymnastics A2 4 Jr A 8.500 13T 9.050 7 8.850 8 9.250 4T 35.650 7
2018-05-03 Illinois USA Gymnastics Level 3 State Championships Phenom Gymnastics 8 3 Ch B 9.675 4 9.700 1T 9.725 1 9.750 1 38.850 1
2018-03-02 2018 Flip'r Invitational Phenom Gymnastics 7 3 Child B Age 7 9.650 1 9.500 2 9.525 1 9.600 1 38.275 1
2018-02-16 Big Classic Phenom Gymnastics 6B 3 Child A 9.400 1 9.600 1 9.750 1 9.625 1 38.375 1
2018-01-19 2018 Bravo Classic Phenom Gymnastics 8B 3 Child 9.500 6T 9.550 1 8.725 12 9.450 4 37.225 4
2017-12-15 2017 Aspire Classic Phenom Gymnastics 11A 3 Younger 9.675 2 9.300 4 9.175 4 9.825 1 37.975 2
2017-12-08 Horton Invite At IWU Shirk Center Phenom Gymnastics All 3 Ch A 9.500 4 9.200 2 9.375 1 9.325 1 37.400 1
2017-11-16 Paul Hamm Thanksgiving Classic - Women Phenom Gymnastics 5 3 Younger 9.275 9T 8.900 13T 9.050 5 9.475 1 36.700 5
2017-10-28 Twist N Turn Phenom Gymnastics 1 3 All Ages 9.325 13 8.700 10T 9.450 1T 9.300 4 36.775 5T
2017-03-30 2017 Illinois Level 3 & 5 State Phenom Gymnastics All 3 Ch A 9.500 9 9.600 5 9.275 3 9.200 8T 37.575 5
2017-03-10 Lucky Invitational Phenom Gymnastics B03 3 Jr A 8.900 13 9.000 9T 8.750 8T 9.250 7 35.900 9
2017-02-02 The Big Chill Phenom Gymnastics 1 3 7 Under 8.500 8 9.150 3 8.925 2 8.400 5 34.975 3
2017-01-20 2017 Bravo Classic Phenom Gymnastics 12B 3 6-7yrs 9.050 11T 9.150 4 8.725 7T 9.200 3 36.125 4
2016-12-16 2016 Aspire Classic Phenom Gymnastics 10 3 Younger 9.025 7 8.900 7T 7.750 14 8.900 6T 34.575 8T
2016-12-09 MEGA Magic Classic 2016 Phenom Gymnastics 7A 3 child A 8.600 12 7.850 12 8.300 8 8.600 9 33.350 12
Get your scores on
a t-shirt, pin, or hoodie

www.lazysuits.com